Six Mile, SC (29682)

9:52 AM EST on December 06, 2016 (GMT -0500)
Wynward Pointe I | | Change Station

Elev 863 ft 34.81 °N, 82.91 °W | Updated 38 seconds ago

Light Drizzle
Light Drizzle
49.6 °F
Feels Like 44 °F
N
15.0
Wind Variable Wind from ENE
Gusts 16.0 mph

Today
High -- | Low -- °F
--% Chance of Precip.
Yesterday
High -- | Low -- °F
Precip. -- in
Pressure 29.76 in
Visibility 4.0 miles
Clouds Mostly Cloudy 800 ft
Overcast 1300 ft
Windchill 44 °F
Dew Point 47 °F
Humidity 92%
Rainfall 0.15 in
Snow Depth Not available.
7:25 AM 5:19 PM
Waxing Crescent, 42% visible
METAR KLQK 061435Z AUTO 07011G20KT 4SM -DZ BKN008 OVC013 08/07 A2976 RMK AO2 T00810073
Pressure 29.76 in
Visibility 4.0 miles
Clouds Mostly Cloudy 800 ft
Overcast 1300 ft
Windchill 44 °F
Dew Point 47 °F
Humidity 92%
Rainfall 0.15 in
Snow Depth Not available.
7:25 AM 5:19 PM
Waxing Crescent, 42% visible
METAR KLQK 061435Z AUTO 07011G20KT 4SM -DZ BKN008 OVC013 08/07 A2976 RMK AO2 T00810073

10-Day Weather Forecast

Almanac

Astronomy

Dec. 06, 2016 Rise Set
Actual Time
Civil Twilight
Nautical Twilight
Astronomical Twilight
Moon
Length of Visible Light
Length of Day
Tomorrow will be .
, % of the Moon is Illuminated

Today's Extremes

State Highs State Lows

Community

WunderPhotos

Upload Photos

1,955,950 photos uploaded!

WunderBlog® & News

Nearby

Air Quality

  Air Quality AQ Index Pollutant
Not available.

Snow Depth

Station Depth Elevation

Earthquake Activity

City Distance Mag. Time & Date
Minimum magnitude displayed is 2.5.

Coastal Water Temperatures

Place Temperature

Stations

Nearby Weather Stations

Station Location Temp. Windchill Dew Point Humidity Wind Precip. Elev Updated Type
                   

Watches & Warnings

There are currently no watches in effect.